METAR Data
IDs: Format: Raw Decoded Include TAF

Data at: 2023 UTC 25 Oct 2021

ULLI 252000Z 23003MPS 170V290 9999 OVC040 07/03 Q1015 R28L/090060 NOSIG